Time;durP1;ratioP1;P1;durP2;ratioP2;P2;SDS_P1;SDS_P2;PMS_P1;PMS_P2;Temp;Humidity;BMP_temperature;BMP_pressure;BME280_temperature;BME280_humidity;BME280_pressure;Samples;Min_cycle;Max_cycle;Signal;HPM_P1;HPM_P2
2022/03/13 00:01:21;;;;;;;0.00;0.00;;;;;18.60;100917.00;;;;5091972;28;20092;-78
2022/03/13 00:03:52;;;;;;;0.00;0.00;;;;;18.60;100927.00;;;;5097643;28;20044;-78
2022/03/13 00:06:35;;;;;;;0.00;0.00;;;;;18.60;100937.00;;;;5097506;27;20128;-79
2022/03/13 00:09:13;;;;;;;0.00;0.00;;;;;18.70;100936.00;;;;5091169;28;20040;-76
2022/03/13 00:11:43;;;;;;;0.00;0.00;;;;;18.60;100926.00;;;;5112030;27;20044;-78
2022/03/13 00:14:13;;;;;;;0.00;0.00;;;;;18.60;100947.00;;;;5071024;28;20048;-78
2022/03/13 00:16:45;;;;;;;0.00;0.00;;;;;18.60;100926.00;;;;5086968;28;20056;-76
2022/03/13 00:19:16;;;;;;;0.00;0.00;;;;;18.50;100951.00;;;;5086955;28;20155;-77
2022/03/13 00:21:52;;;;;;;0.00;0.00;;;;;18.50;100932.00;;;;5087363;28;20629;-76
2022/03/13 00:24:23;;;;;;;0.00;0.00;;;;;18.50;100916.00;;;;5087549;28;20036;-77
2022/03/13 00:26:52;;;;;;;0.00;0.00;;;;;18.50;100941.00;;;;5088945;28;20044;-78
2022/03/13 00:29:22;;;;;;;0.00;0.00;;;;;18.40;100944.00;;;;5088115;28;20067;-76
2022/03/13 00:31:54;;;;;;;0.00;0.00;;;;;18.40;100941.00;;;;5088680;28;20040;-77
2022/03/13 00:34:24;;;;;;;0.00;0.00;;;;;18.40;100928.00;;;;5089033;28;20044;-78
2022/03/13 00:36:54;;;;;;;0.00;0.00;;;;;18.40;100951.00;;;;5103636;28;20510;-79
2022/03/13 00:39:23;;;;;;;0.00;0.00;;;;;18.40;100948.00;;;;5103363;28;20032;-78
2022/03/13 00:41:53;;;;;;;0.00;0.00;;;;;18.30;100934.00;;;;5087924;28;20040;-78
2022/03/13 00:44:23;;;;;;;0.00;0.00;;;;;18.30;100935.00;;;;5089289;28;20066;-77
2022/03/13 00:46:52;;;;;;;0.00;0.00;;;;;18.30;100932.00;;;;5086577;28;20048;-78
2022/03/13 00:49:22;;;;;;;0.00;0.00;;;;;18.30;100937.00;;;;5092426;28;20530;-78
2022/03/13 00:51:51;;;;;;;0.00;0.00;;;;;18.20;100941.00;;;;5095336;28;20040;-80
2022/03/13 00:54:20;;;;;;;0.00;0.00;;;;;18.20;100952.00;;;;5096881;27;20043;-76
2022/03/13 00:56:50;;;;;;;0.00;0.00;;;;;18.20;100934.00;;;;5098868;28;20047;-78
2022/03/13 00:59:21;;;;;;;0.00;0.00;;;;;18.20;100940.00;;;;5097426;28;20043;-76
2022/03/13 01:01:50;;;;;;;0.00;0.00;;;;;18.20;100942.00;;;;5095024;28;20047;-78
2022/03/13 01:04:20;;;;;;;0.00;0.00;;;;;18.20;100946.00;;;;5097043;28;20047;-79
2022/03/13 01:06:50;;;;;;;0.00;0.00;;;;;18.10;100927.00;;;;5095014;28;20414;-77
2022/03/13 01:09:20;;;;;;;0.00;0.00;;;;;18.10;100938.00;;;;5100512;28;20059;-77
2022/03/13 01:11:49;;;;;;;0.00;0.00;;;;;18.10;100945.00;;;;5097269;28;20051;-77
2022/03/13 01:14:21;;;;;;;0.00;0.00;;;;;18.10;100937.00;;;;5095817;28;20093;-78
2022/03/13 01:17:04;;;;;;;0.00;0.00;;;;;18.10;100938.00;;;;5098127;28;20075;-78
2022/03/13 01:19:37;;;;;;;0.00;0.00;;;;;18.10;100940.00;;;;5108708;27;20430;-79
2022/03/13 01:22:07;;;;;;;0.00;0.00;;;;;18.10;100933.00;;;;5095428;28;20081;-77
2022/03/13 01:24:43;;;;;;;0.00;0.00;;;;;18.10;100953.00;;;;5112020;27;20048;-77
2022/03/13 01:27:16;;;;;;;0.00;0.00;;;;;18.10;100944.00;;;;5096354;28;20043;-79
2022/03/13 01:29:46;;;;;;;0.00;0.00;;;;;18.00;100959.00;;;;5110676;27;20039;-76
2022/03/13 01:32:19;;;;;;;0.00;0.00;;;;;18.00;100930.00;;;;5096391;28;20043;-78
2022/03/13 01:34:50;;;;;;;0.00;0.00;;;;;17.90;100964.00;;;;5078939;28;20048;-78
2022/03/13 01:37:23;;;;;;;;;;;;;17.90;100959.00;;;;5111376;27;20668;-78
2022/03/13 01:39:55;;;;;;;0.00;0.00;;;;;17.90;100951.00;;;;5098167;28;20026;-76
2022/03/13 01:42:25;;;;;;;0.00;0.00;;;;;17.90;100934.00;;;;5096757;28;20047;-79
2022/03/13 01:44:55;;;;;;;0.00;0.00;;;;;17.90;100959.00;;;;5092195;28;20040;-76
2022/03/13 01:47:25;;;;;;;0.00;0.00;;;;;17.90;100936.00;;;;5096929;28;20032;-77
2022/03/13 01:49:54;;;;;;;0.00;0.00;;;;;17.90;100957.00;;;;5091781;28;20032;-79
2022/03/13 01:52:29;;;;;;;0.00;0.00;;;;;17.90;100942.00;;;;5112202;27;20047;-78
2022/03/13 01:54:59;;;;;;;0.00;0.00;;;;;17.90;100959.00;;;;5108542;27;20044;-79
2022/03/13 01:57:29;;;;;;;0.00;0.00;;;;;17.80;100953.00;;;;5094807;28;20035;-77
2022/03/13 02:00:00;;;;;;;0.00;0.00;;;;;17.80;100973.00;;;;5095773;28;20039;-79
2022/03/13 02:02:33;;;;;;;0.00;0.00;;;;;17.80;100959.00;;;;5096460;28;20048;-77
2022/03/13 02:05:04;;;;;;;0.00;0.00;;;;;17.80;100944.00;;;;5094859;28;20404;-78
2022/03/13 02:07:35;;;;;;;0.00;0.00;;;;;17.80;100965.00;;;;5106501;27;20044;-78
2022/03/13 02:10:06;;;;;;;0.00;0.00;;;;;17.80;100953.00;;;;5099996;28;20152;-79
2022/03/13 02:12:35;;;;;;;0.00;0.00;;;;;17.80;100945.00;;;;5103053;28;20039;-79
2022/03/13 02:15:06;;;;;;;0.00;0.00;;;;;17.80;100955.00;;;;5119985;27;20054;-77
2022/03/13 02:17:36;;;;;;;0.00;0.00;;;;;17.80;100927.00;;;;5105527;27;20513;-79
2022/03/13 02:20:16;;;;;;;0.00;0.00;;;;;17.70;100915.00;;;;5084830;28;20053;-79
2022/03/13 02:22:52;;;;;;;0.00;0.00;;;;;17.80;100936.00;;;;5104579;28;20541;-79
2022/03/13 02:25:23;;;;;;;0.00;0.00;;;;;17.70;100942.00;;;;5121024;27;20039;-77
2022/03/13 02:27:54;;;;;;;0.28;0.28;;;;;17.80;100929.00;;;;5121775;27;20058;-78
2022/03/13 02:30:27;;;;;;;0.00;0.00;;;;;17.70;100935.00;;;;5104830;28;20035;-76
2022/03/13 02:32:57;;;;;;;0.00;0.00;;;;;17.80;100930.00;;;;5106646;28;20072;-79
2022/03/13 02:35:29;;;;;;;0.00;0.00;;;;;17.80;100912.00;;;;5105245;28;20082;-77
2022/03/13 02:37:59;;;;;;;0.00;0.00;;;;;17.80;100900.00;;;;5105407;28;20506;-78
2022/03/13 02:40:29;;;;;;;0.00;0.00;;;;;17.80;100931.00;;;;5106117;28;20055;-77
2022/03/13 02:42:58;;;;;;;0.00;0.00;;;;;17.80;100899.00;;;;5105547;28;20047;-79
2022/03/13 02:45:37;;;;;;;0.00;0.00;;;;;17.80;100917.00;;;;5107209;28;20126;-77
2022/03/13 02:48:09;;;;;;;1.45;0.38;;;;;17.80;100910.00;;;;5105578;28;20399;-79
2022/03/13 02:50:40;;;;;;;0.00;0.00;;;;;17.80;100922.00;;;;5123404;27;20406;-78
2022/03/13 02:53:10;;;;;;;0.00;0.00;;;;;17.80;100926.00;;;;5105696;28;20054;-78
2022/03/13 02:55:39;;;;;;;0.10;0.10;;;;;17.80;100904.00;;;;5122834;28;20063;-81
2022/03/13 02:58:17;;;;;;;0.00;0.00;;;;;17.80;100906.00;;;;5122498;28;20082;-78
2022/03/13 03:00:52;;;;;;;0.00;0.00;;;;;17.80;100890.00;;;;5105937;28;20083;-80
2022/03/13 03:03:23;;;;;;;0.00;0.00;;;;;17.90;100909.00;;;;5109898;28;20491;-77
2022/03/13 03:05:53;;;;;;;0.00;0.00;;;;;17.90;100904.00;;;;5109261;28;20051;-79
2022/03/13 03:08:23;;;;;;;0.00;0.00;;;;;17.90;100888.00;;;;5126462;27;20421;-78
2022/03/13 03:10:55;;;;;;;0.00;0.00;;;;;17.90;100901.00;;;;5110811;28;20104;-80
2022/03/13 03:13:25;;;;;;;0.00;0.00;;;;;17.90;100890.00;;;;5111036;28;20040;-79
2022/03/13 03:15:54;;;;;;;0.00;0.00;;;;;17.90;100889.00;;;;5110035;28;20087;-80
2022/03/13 03:18:25;;;;;;;0.00;0.00;;;;;17.90;100882.00;;;;5126437;27;20055;-79
2022/03/13 03:20:55;;;;;;;0.00;0.00;;;;;18.00;100884.00;;;;5111145;28;20073;-79
2022/03/13 03:23:24;;;;;;;0.00;0.00;;;;;18.00;100902.00;;;;5108809;28;20039;-77
2022/03/13 03:25:54;;;;;;;0.00;0.00;;;;;18.00;100885.00;;;;5091904;28;20120;-78
2022/03/13 03:28:24;;;;;;;0.00;0.00;;;;;18.00;100883.00;;;;5108949;28;20051;-79
2022/03/13 03:30:54;;;;;;;0.00;0.00;;;;;18.10;100872.00;;;;5125771;27;20046;-77
2022/03/13 03:33:23;;;;;;;0.00;0.00;;;;;18.10;100906.00;;;;5125117;27;20039;-79
2022/03/13 03:35:53;;;;;;;0.00;0.00;;;;;18.20;100873.00;;;;5109300;28;20060;-79
2022/03/13 03:38:24;;;;;;;0.00;0.00;;;;;18.20;100893.00;;;;5110087;28;20092;-79
2022/03/13 03:40:53;;;;;;;0.00;0.00;;;;;18.20;100894.00;;;;5109222;28;20096;-77
2022/03/13 03:43:22;;;;;;;0.00;0.00;;;;;18.20;100875.00;;;;5108620;28;20039;-77
2022/03/13 03:45:56;;;;;;;0.00;0.00;;;;;18.20;100875.00;;;;5110519;28;20497;-79
2022/03/13 03:48:26;;;;;;;0.00;0.00;;;;;18.20;100876.00;;;;5125539;27;20526;-78
2022/03/13 03:50:55;;;;;;;0.00;0.00;;;;;18.10;100887.00;;;;5092161;28;20047;-79
2022/03/13 03:53:25;;;;;;;0.00;0.00;;;;;18.10;100866.00;;;;5108885;28;20047;-78
2022/03/13 03:55:56;;;;;;;0.00;0.00;;;;;18.10;100852.00;;;;5108494;28;20148;-79
2022/03/13 03:58:27;;;;;;;0.00;0.00;;;;;18.10;100849.00;;;;5110355;28;20040;-79
2022/03/13 04:00:57;;;;;;;0.00;0.00;;;;;18.10;100849.00;;;;5124810;27;20047;-78
2022/03/13 04:03:27;;;;;;;0.00;0.00;;;;;18.00;100843.00;;;;5092543;28;20039;-80
2022/03/13 04:05:56;;;;;;;0.00;0.00;;;;;18.00;100829.00;;;;5125197;27;20039;-78
2022/03/13 04:08:29;;;;;;;0.00;0.00;;;;;18.00;100845.00;;;;5091954;28;20130;-78
2022/03/13 04:11:00;;;;;;;0.00;0.00;;;;;18.00;100820.00;;;;5108314;28;20046;-77
2022/03/13 04:13:29;;;;;;;0.00;0.00;;;;;18.00;100834.00;;;;5124978;27;21192;-78
2022/03/13 04:15:59;;;;;;;0.00;0.00;;;;;18.00;100822.00;;;;5107684;28;20062;-78
2022/03/13 04:18:28;;;;;;;0.00;0.00;;;;;18.00;100815.00;;;;5108200;28;20677;-78
2022/03/13 04:20:59;;;;;;;0.00;0.00;;;;;17.90;100817.00;;;;5108380;28;20053;-79
2022/03/13 04:23:28;;;;;;;0.00;0.00;;;;;17.90;100833.00;;;;5108840;27;20043;-79
2022/03/13 04:25:58;;;;;;;0.00;0.00;;;;;17.90;100823.00;;;;5124748;27;20055;-78
2022/03/13 04:28:27;;;;;;;0.00;0.00;;;;;17.90;100808.00;;;;5108431;28;20055;-79
2022/03/13 04:30:59;;;;;;;0.00;0.00;;;;;17.90;100829.00;;;;5125153;27;20084;-79
2022/03/13 04:33:33;;;;;;;0.00;0.00;;;;;17.90;100797.00;;;;5107726;28;20128;-79
2022/03/13 04:36:10;;;;;;;0.00;0.00;;;;;17.90;100801.00;;;;5092324;28;20044;-78
2022/03/13 04:38:41;;;;;;;0.00;0.00;;;;;17.90;100823.00;;;;5124668;27;20127;-77
2022/03/13 04:41:11;;;;;;;0.00;0.00;;;;;17.90;100820.00;;;;5125092;27;20100;-81
2022/03/13 04:43:42;;;;;;;0.00;0.00;;;;;18.00;100814.00;;;;5109769;28;20065;-77
2022/03/13 04:46:15;;;;;;;0.00;0.00;;;;;18.00;100816.00;;;;5108703;27;20081;-77
2022/03/13 04:48:45;;;;;;;0.00;0.00;;;;;18.00;100798.00;;;;5109386;28;20055;-77
2022/03/13 04:51:15;;;;;;;0.00;0.00;;;;;18.00;100816.00;;;;5123929;27;20047;-77
2022/03/13 04:53:45;;;;;;;0.00;0.00;;;;;18.00;100803.00;;;;5107920;28;20051;-77
2022/03/13 04:56:15;;;;;;;0.00;0.00;;;;;18.00;100792.00;;;;5107673;28;20096;-77
2022/03/13 04:58:44;;;;;;;0.00;0.00;;;;;18.00;100801.00;;;;5107049;28;20042;-77
2022/03/13 05:01:14;;;;;;;0.28;0.28;;;;;18.00;100804.00;;;;5108585;28;20043;-76
2022/03/13 05:03:44;;;;;;;0.00;0.00;;;;;18.00;100802.00;;;;5124525;27;20130;-76
2022/03/13 05:06:14;;;;;;;0.00;0.00;;;;;18.00;100789.00;;;;5124078;27;20044;-78
2022/03/13 05:08:44;;;;;;;0.00;0.00;;;;;18.00;100794.00;;;;5106919;28;20064;-77
2022/03/13 05:11:15;;;;;;;0.00;0.00;;;;;18.00;100785.00;;;;5102941;28;20056;-77
2022/03/13 05:13:44;;;;;;;0.00;0.00;;;;;18.10;100795.00;;;;5100492;28;20052;-77
2022/03/13 05:16:14;;;;;;;0.00;0.00;;;;;18.10;100784.00;;;;5103492;28;20052;-79
2022/03/13 05:18:43;;;;;;;0.00;0.00;;;;;18.10;100781.00;;;;5104079;28;20044;-79
2022/03/13 05:21:13;;;;;;;0.00;0.00;;;;;18.10;100791.00;;;;5103930;28;20491;-79
2022/03/13 05:23:42;;;;;;;0.00;0.00;;;;;18.10;100784.00;;;;5102263;28;20058;-80
2022/03/13 05:26:12;;;;;;;0.00;0.00;;;;;18.10;100792.00;;;;5087294;28;20055;-80
2022/03/13 05:28:41;;;;;;;0.00;0.00;;;;;18.10;100774.00;;;;5102596;28;20134;-79
2022/03/13 05:31:11;;;;;;;0.00;0.00;;;;;18.20;100796.00;;;;5070082;28;20044;-79
2022/03/13 05:33:41;;;;;;;0.00;0.00;;;;;18.30;100799.00;;;;5099850;28;20146;-77
2022/03/13 05:36:12;;;;;;;0.00;0.00;;;;;18.30;100786.00;;;;5103062;28;20063;-77
2022/03/13 05:38:41;;;;;;;0.00;0.00;;;;;18.30;100783.00;;;;5103273;28;20173;-78
2022/03/13 05:41:13;;;;;;;0.00;0.00;;;;;18.30;100792.00;;;;5069649;28;20067;-79
2022/03/13 05:43:43;;;;;;;0.00;0.00;;;;;18.30;100778.00;;;;5102990;28;20127;-79
2022/03/13 05:46:13;;;;;;;0.00;0.00;;;;;18.20;100789.00;;;;5103434;28;20060;-80
2022/03/13 05:48:42;;;;;;;0.00;0.00;;;;;18.20;100777.00;;;;5103389;28;20075;-78
2022/03/13 05:51:12;;;;;;;0.00;0.00;;;;;18.20;100777.00;;;;5086440;28;20453;-77
2022/03/13 05:53:41;;;;;;;0.00;0.00;;;;;18.10;100793.00;;;;5101980;28;20048;-79
2022/03/13 05:56:11;;;;;;;0.00;0.00;;;;;18.10;100791.00;;;;5102595;28;20081;-78
2022/03/13 05:58:40;;;;;;;0.00;0.00;;;;;18.10;100782.00;;;;5068884;28;20052;-79
2022/03/13 06:01:09;;;;;;;0.00;0.00;;;;;18.10;100769.00;;;;5102480;28;20056;-77
2022/03/13 06:03:39;;;;;;;0.00;0.00;;;;;18.10;100769.00;;;;5069342;28;20431;-79
2022/03/13 06:06:09;;;;;;;0.00;0.00;;;;;18.10;100775.00;;;;5101811;28;20043;-80
2022/03/13 06:08:39;;;;;;;0.00;0.00;;;;;18.10;100747.00;;;;5102520;28;20107;-77
2022/03/13 06:11:10;;;;;;;0.00;0.00;;;;;18.10;100757.00;;;;5085676;28;20097;-78
2022/03/13 06:13:41;;;;;;;0.00;0.00;;;;;18.20;100761.00;;;;5085691;28;20122;-80
2022/03/13 06:16:15;;;;;;;0.00;0.00;;;;;18.20;100761.00;;;;5101751;28;20062;-77
2022/03/13 06:18:46;;;;;;;0.00;0.00;;;;;18.30;100771.00;;;;5101661;28;20060;-78
2022/03/13 06:21:15;;;;;;;0.00;0.00;;;;;18.30;100763.00;;;;5102419;28;20059;-77
2022/03/13 06:23:45;;;;;;;0.00;0.00;;;;;18.30;100757.00;;;;5086473;28;20051;-75
2022/03/13 06:26:17;;;;;;;0.00;0.00;;;;;18.20;100743.00;;;;5102075;28;20048;-74
2022/03/13 06:28:46;;;;;;;0.00;0.00;;;;;18.10;100739.00;;;;5085726;28;20086;-79
2022/03/13 06:31:18;;;;;;;0.00;0.00;;;;;18.10;100758.00;;;;5087297;28;20078;-79
2022/03/13 06:33:48;;;;;;;0.00;0.00;;;;;18.20;100756.00;;;;5108383;28;20135;-79
2022/03/13 06:36:17;;;;;;;0.00;0.00;;;;;18.20;100743.00;;;;5113116;28;20304;-80
2022/03/13 06:38:47;;;;;;;0.00;0.00;;;;;18.20;100736.00;;;;5096038;28;20032;-77
2022/03/13 06:41:19;;;;;;;0.00;0.00;;;;;18.20;100743.00;;;;5129655;28;20024;-80
2022/03/13 06:43:49;;;;;;;0.00;0.00;;;;;18.20;100744.00;;;;5129695;28;20036;-79
2022/03/13 06:46:19;;;;;;;0.00;0.00;;;;;18.20;100741.00;;;;5128790;28;20078;-79
2022/03/13 06:48:48;;;;;;;0.00;0.00;;;;;18.20;100731.00;;;;5097111;28;20227;-79
2022/03/13 06:51:18;;;;;;;0.00;0.00;;;;;18.20;100740.00;;;;5101774;28;20097;-80
2022/03/13 06:53:47;;;;;;;0.00;0.00;;;;;18.20;100738.00;;;;5068206;28;20059;-80
2022/03/13 06:56:17;;;;;;;0.00;0.00;;;;;18.20;100742.00;;;;5085164;28;20051;-80
2022/03/13 06:58:46;;;;;;;0.00;0.00;;;;;18.20;100745.00;;;;5086604;28;20040;-76
2022/03/13 07:01:17;;;;;;;0.00;0.00;;;;;18.20;100743.00;;;;5085646;28;20044;-79
2022/03/13 07:03:47;;;;;;;0.00;0.00;;;;;18.20;100742.00;;;;5090927;28;20135;-76
2022/03/13 07:06:18;;;;;;;0.00;0.00;;;;;18.20;100737.00;;;;5090646;28;20052;-79
2022/03/13 07:08:49;;;;;;;0.00;0.00;;;;;18.20;100738.00;;;;5089218;28;20288;-75
2022/03/13 07:11:22;;;;;;;0.00;0.00;;;;;18.30;100729.00;;;;5088874;28;20596;-77
2022/03/13 07:13:53;;;;;;;0.00;0.00;;;;;18.30;100725.00;;;;5105103;28;20056;-77
2022/03/13 07:16:23;;;;;;;0.00;0.00;;;;;18.40;100703.00;;;;5085907;28;20510;-76
2022/03/13 07:18:53;;;;;;;0.00;0.00;;;;;18.40;100731.00;;;;5085892;28;20117;-79
2022/03/13 07:21:22;;;;;;;0.00;0.00;;;;;18.30;100729.00;;;;5086335;28;20037;-78
2022/03/13 07:23:52;;;;;;;0.00;0.00;;;;;18.30;100730.00;;;;5084919;28;20040;-77
2022/03/13 07:26:21;;;;;;;0.00;0.00;;;;;18.30;100742.00;;;;5084611;28;20461;-77
2022/03/13 07:28:50;;;;;;;0.00;0.00;;;;;18.30;100732.00;;;;5103141;28;20135;-77
2022/03/13 07:31:20;;;;;;;0.00;0.00;;;;;18.30;100730.00;;;;5086345;28;20044;-76
2022/03/13 07:33:49;;;;;;;0.00;0.00;;;;;18.30;100727.00;;;;5101114;28;20062;-78
2022/03/13 07:36:19;;;;;;;0.00;0.00;;;;;18.30;100740.00;;;;5086029;28;20055;-80
2022/03/13 07:38:48;;;;;;;0.00;0.00;;;;;18.30;100718.00;;;;5102128;28;20094;-76
2022/03/13 07:41:21;;;;;;;0.00;0.00;;;;;18.30;100711.00;;;;5101358;28;20048;-79
2022/03/13 07:43:51;;;;;;;0.00;0.00;;;;;18.20;100724.00;;;;5098607;28;20481;-77
2022/03/13 07:46:20;;;;;;;0.00;0.00;;;;;18.20;100725.00;;;;5085803;28;20048;-77
2022/03/13 07:48:50;;;;;;;0.00;0.00;;;;;18.30;100709.00;;;;5105588;28;20055;-78
2022/03/13 07:51:19;;;;;;;0.00;0.00;;;;;18.30;100710.00;;;;5088444;28;20411;-77
2022/03/13 07:53:49;;;;;;;0.00;0.00;;;;;18.20;100724.00;;;;5105465;28;20543;-78
2022/03/13 07:56:19;;;;;;;2.63;1.13;;;;;18.20;100713.00;;;;5104454;28;20580;-78
2022/03/13 07:58:48;;;;;;;0.00;0.00;;;;;18.20;100704.00;;;;5105671;28;20047;-78
2022/03/13 08:01:18;;;;;;;0.00;0.00;;;;;18.10;100715.00;;;;5105355;28;20044;-78
2022/03/13 08:03:51;;;;;;;0.00;0.00;;;;;18.10;100704.00;;;;5089770;28;20499;-79
2022/03/13 08:06:21;;;;;;;0.00;0.00;;;;;18.10;100716.00;;;;5105354;28;20048;-78
2022/03/13 08:08:50;;;;;;;0.00;0.00;;;;;18.10;100713.00;;;;5088962;28;20043;-79
2022/03/13 08:11:20;;;;;;;0.00;0.00;;;;;18.00;100717.00;;;;5105352;28;20043;-78
2022/03/13 08:13:49;;;;;;;0.00;0.00;;;;;18.00;100695.00;;;;5104827;28;20063;-77
2022/03/13 08:16:19;;;;;;;38.72;1.55;;;;;18.00;100719.00;;;;5088710;28;20427;-79
2022/03/13 08:18:49;;;;;;;0.00;0.00;;;;;18.00;100712.00;;;;5090099;28;20051;-77
2022/03/13 08:21:19;;;;;;;0.00;0.00;;;;;18.00;100725.00;;;;5089451;28;20039;-77
2022/03/13 08:23:53;;;;;;;0.00;0.00;;;;;18.00;100722.00;;;;5103857;28;20044;-79
2022/03/13 08:26:22;;;;;;;0.00;0.00;;;;;18.00;100708.00;;;;5104394;28;20092;-78
2022/03/13 08:28:51;;;;;;;0.00;0.00;;;;;18.00;100733.00;;;;5103883;28;20048;-77
2022/03/13 08:31:22;;;;;;;0.00;0.00;;;;;18.00;100722.00;;;;5089616;28;20043;-78
2022/03/13 08:33:51;;;;;;;0.00;0.00;;;;;18.00;100725.00;;;;5104425;28;20518;-77
2022/03/13 08:36:21;;;;;;;0.00;0.00;;;;;18.00;100726.00;;;;5088435;28;20044;-77
2022/03/13 08:38:50;;;;;;;0.00;0.00;;;;;18.10;100718.00;;;;5104924;28;20044;-78
2022/03/13 08:41:21;;;;;;;0.00;0.00;;;;;18.10;100747.00;;;;5089127;28;20050;-76
2022/03/13 08:43:50;;;;;;;0.00;0.00;;;;;18.10;100735.00;;;;5104058;28;20727;-78
2022/03/13 08:46:20;;;;;;;0.00;0.00;;;;;18.10;100737.00;;;;5088743;28;20052;-78
2022/03/13 08:48:49;;;;;;;0.00;0.00;;;;;18.10;100723.00;;;;5088989;28;20102;-78
2022/03/13 08:51:21;;;;;;;0.00;0.00;;;;;18.10;100736.00;;;;5101049;28;20058;-78
2022/03/13 08:53:51;;;;;;;0.00;0.00;;;;;18.20;100737.00;;;;5103831;28;20044;-79
2022/03/13 08:56:21;;;;;;;0.00;0.00;;;;;18.20;100739.00;;;;5087833;28;20510;-77
2022/03/13 08:58:50;;;;;;;0.00;0.00;;;;;18.20;100750.00;;;;5085946;28;20711;-78
2022/03/13 09:01:21;;;;;;;0.00;0.00;;;;;18.20;100747.00;;;;5089000;28;20054;-77
2022/03/13 09:03:54;;;;;;;0.00;0.00;;;;;18.20;100752.00;;;;5103238;28;20469;-78
2022/03/13 09:06:24;;;;;;;0.00;0.00;;;;;18.20;100722.00;;;;5086834;28;20048;-77
2022/03/13 09:08:54;;;;;;;0.00;0.00;;;;;18.20;100738.00;;;;5103297;28;20048;-76
2022/03/13 09:11:24;;;;;;;0.00;0.00;;;;;18.10;100732.00;;;;5103354;28;20130;-78
2022/03/13 09:13:53;;;;;;;0.20;0.20;;;;;18.20;100738.00;;;;5088336;28;20043;-77
2022/03/13 09:16:22;;;;;;;0.00;0.00;;;;;18.20;100737.00;;;;5103518;28;20097;-78
2022/03/13 09:18:52;;;;;;;0.00;0.00;;;;;18.20;100732.00;;;;5103482;28;20808;-78
2022/03/13 09:21:22;;;;;;;0.00;0.00;;;;;18.20;100723.00;;;;5088256;28;20093;-78
2022/03/13 09:23:52;;;;;;;0.00;0.00;;;;;18.20;100721.00;;;;5102962;28;20048;-77
2022/03/13 09:26:21;;;;;;;0.00;0.00;;;;;18.20;100707.00;;;;5070822;28;20048;-78
2022/03/13 09:28:51;;;;;;;0.00;0.00;;;;;18.20;100705.00;;;;5087888;28;20036;-79
2022/03/13 09:31:20;;;;;;;0.00;0.00;;;;;18.20;100719.00;;;;5103320;28;20040;-79
2022/03/13 09:33:50;;;;;;;0.00;0.00;;;;;18.20;100732.00;;;;5103681;28;20098;-78
2022/03/13 09:36:20;;;;;;;0.00;0.00;;;;;18.20;100730.00;;;;5103251;28;20039;-76
2022/03/13 09:38:49;;;;;;;0.00;0.00;;;;;18.20;100735.00;;;;5087365;28;20040;-77
2022/03/13 09:41:20;;;;;;;0.00;0.00;;;;;18.30;100740.00;;;;5087255;28;20064;-78
2022/03/13 09:43:49;;;;;;;0.00;0.00;;;;;18.30;100723.00;;;;5082417;28;20055;-77
2022/03/13 09:46:19;;;;;;;0.00;0.00;;;;;18.30;100715.00;;;;5098914;28;20052;-79
2022/03/13 09:48:52;;;;;;;0.00;0.00;;;;;18.30;100734.00;;;;5099519;28;20082;-77
2022/03/13 09:51:22;;;;;;;0.00;0.00;;;;;18.30;100739.00;;;;5102523;28;20044;-77
2022/03/13 09:53:52;;;;;;;0.00;0.00;;;;;18.30;100756.00;;;;5102994;28;20055;-77
2022/03/13 09:56:21;;;;;;;0.00;0.00;;;;;18.30;100751.00;;;;5086900;28;20040;-76
2022/03/13 09:58:51;;;;;;;0.00;0.00;;;;;18.30;100754.00;;;;5085996;28;20419;-77
2022/03/13 10:01:20;;;;;;;0.00;0.00;;;;;18.30;100761.00;;;;5085024;28;20059;-79
2022/03/13 10:03:50;;;;;;;0.00;0.00;;;;;18.40;100770.00;;;;5086830;28;20160;-76
2022/03/13 10:06:19;;;;;;;0.00;0.00;;;;;18.40;100769.00;;;;5087077;28;20046;-77
2022/03/13 10:08:49;;;;;;;0.00;0.00;;;;;18.40;100768.00;;;;5102509;28;20071;-77
2022/03/13 10:11:35;;;;;;;0.35;0.10;;;;;18.40;100789.00;;;;5102081;28;20286;-79
2022/03/13 10:14:10;;;;;;;0.00;0.00;;;;;18.40;100802.00;;;;5102357;28;20048;-77
2022/03/13 10:16:41;;;;;;;0.00;0.00;;;;;18.40;100787.00;;;;5086997;28;20117;-78
2022/03/13 10:19:15;;;;;;;0.00;0.00;;;;;18.40;100793.00;;;;5086421;28;20040;-79
2022/03/13 10:22:03;;;;;;;0.00;0.00;;;;;18.40;100812.00;;;;5102736;28;20083;-78
2022/03/13 10:24:51;;;;;;;0.00;0.00;;;;;18.50;100799.00;;;;5102204;28;20055;-76
2022/03/13 10:27:21;;;;;;;0.00;0.00;;;;;18.50;100786.00;;;;5102334;28;20572;-78
2022/03/13 10:29:50;;;;;;;0.00;0.00;;;;;18.60;100797.00;;;;5101919;28;20039;-78
2022/03/13 10:32:21;;;;;;;0.00;0.00;;;;;18.60;100798.00;;;;5102462;28;20044;-79
2022/03/13 10:34:56;;;;;;;0.00;0.00;;;;;18.60;100812.00;;;;5085948;28;20051;-77
2022/03/13 10:37:39;;;;;;;0.10;0.10;;;;;18.60;100817.00;;;;5086799;28;20039;-77
2022/03/13 10:40:19;;;;;;;0.00;0.00;;;;;18.60;100827.00;;;;5086315;28;20044;-76
2022/03/13 10:42:50;;;;;;;0.00;0.00;;;;;18.60;100792.00;;;;5102139;28;20126;-79
2022/03/13 10:45:51;;;;;;;0.00;0.00;;;;;18.60;100806.00;;;;5084792;28;20113;-79
2022/03/13 10:48:21;;;;;;;;;;;;;18.70;100817.00;;;;5086951;28;20052;-79
2022/03/13 10:50:53;;;;;;;0.00;0.00;;;;;18.70;100810.00;;;;5102028;28;19969;-78
2022/03/13 10:53:24;;;;;;;0.00;0.00;;;;;18.80;100810.00;;;;5101675;28;20052;-80
2022/03/13 10:56:03;;;;;;;0.00;0.00;;;;;18.80;100811.00;;;;5101907;28;20055;-78
2022/03/13 10:58:42;;;;;;;0.00;0.00;;;;;18.80;100818.00;;;;5084687;28;20044;-75
2022/03/13 11:01:13;;;;;;;0.00;0.00;;;;;18.90;100809.00;;;;5086744;28;20035;-78
2022/03/13 11:04:01;;;;;;;0.00;0.00;;;;;18.90;100831.00;;;;5086563;28;20048;-79
2022/03/13 11:06:31;;;;;;;0.00;0.00;;;;;18.80;100850.00;;;;5086697;28;20051;-77
2022/03/13 11:09:00;;;;;;;0.00;0.00;;;;;18.90;100827.00;;;;5086259;28;20047;-77
2022/03/13 11:11:32;;;;;;;0.00;0.00;;;;;18.80;100846.00;;;;5086145;28;20043;-77
2022/03/13 11:14:03;;;;;;;0.00;0.00;;;;;18.90;100836.00;;;;5086392;28;20043;-76
2022/03/13 11:16:33;;;;;;;0.00;0.00;;;;;18.90;100844.00;;;;5101271;28;20060;-79
2022/03/13 11:19:08;;;;;;;0.00;0.00;;;;;18.80;100819.00;;;;5086139;28;20530;-76
2022/03/13 11:21:38;;;;;;;0.00;0.00;;;;;18.90;100848.00;;;;5086324;28;20081;-78
2022/03/13 11:24:10;;;;;;;0.00;0.00;;;;;18.90;100827.00;;;;5106427;28;20059;-76
2022/03/13 11:26:43;;;;;;;0.00;0.00;;;;;18.90;100825.00;;;;5105527;28;20067;-75
2022/03/13 11:29:14;;;;;;;0.00;0.00;;;;;18.90;100832.00;;;;5104792;28;20044;-78
2022/03/13 11:31:44;;;;;;;0.00;0.00;;;;;18.90;100839.00;;;;5090448;28;20526;-77
2022/03/13 11:34:22;;;;;;;0.47;0.47;;;;;18.90;100853.00;;;;5106553;28;20048;-78
2022/03/13 11:36:52;;;;;;;0.00;0.00;;;;;18.90;100861.00;;;;5089931;28;20047;-76
2022/03/13 11:39:26;;;;;;;0.00;0.00;;;;;18.90;100848.00;;;;5087902;28;20052;-78
2022/03/13 11:41:56;;;;;;;0.00;0.00;;;;;18.90;100849.00;;;;5090387;28;20131;-77
2022/03/13 11:44:34;;;;;;;0.00;0.00;;;;;18.90;100855.00;;;;5105772;28;20048;-78
2022/03/13 11:47:23;;;;;;;0.00;0.00;;;;;18.80;100851.00;;;;5090053;28;20580;-77
2022/03/13 11:49:52;;;;;;;0.00;0.00;;;;;18.90;100821.00;;;;5105184;28;20040;-78
2022/03/13 11:52:29;;;;;;;0.00;0.00;;;;;18.90;100829.00;;;;5090127;28;20117;-77
2022/03/13 11:55:10;;;;;;;0.00;0.00;;;;;18.90;100825.00;;;;5104871;28;20072;-76
2022/03/13 11:57:50;;;;;;;0.00;0.00;;;;;19.00;100848.00;;;;5104647;28;20055;-76
2022/03/13 12:00:20;;;;;;;0.00;0.00;;;;;18.90;100845.00;;;;5070919;28;20048;-76
2022/03/13 12:02:51;;;;;;;0.00;0.00;;;;;18.90;100855.00;;;;5089470;28;20135;-79
2022/03/13 12:05:31;;;;;;;1.45;1.45;;;;;18.90;100830.00;;;;5104954;28;20082;-78
2022/03/13 12:08:06;;;;;;;0.00;0.00;;;;;18.90;100852.00;;;;5089388;28;20063;-78
2022/03/13 12:10:43;;;;;;;0.00;0.00;;;;;19.00;100853.00;;;;5105447;28;20147;-78
2022/03/13 12:13:14;;;;;;;0.00;0.00;;;;;19.00;100838.00;;;;5089226;28;20128;-77
2022/03/13 12:15:45;;;;;;;0.00;0.00;;;;;19.00;100835.00;;;;5104396;28;20538;-79
2022/03/13 12:18:29;;;;;;;0.00;0.00;;;;;19.00;100837.00;;;;5088747;28;20116;-77
2022/03/13 12:21:09;;;;;;;0.00;0.00;;;;;18.90;100849.00;;;;5089404;28;20043;-78
2022/03/13 12:23:40;;;;;;;0.00;0.00;;;;;18.90;100862.00;;;;5089450;28;20048;-78
2022/03/13 12:26:18;;;;;;;0.00;0.00;;;;;18.90;100836.00;;;;5104807;28;20408;-78
2022/03/13 12:28:49;;;;;;;0.00;0.00;;;;;18.90;100830.00;;;;5088761;28;20089;-78